sensor_id;sensor_type;location;lat;lon;timestamp;P1;durP1;ratioP1;P2;durP2;ratioP2
76935;SDS011;65881;52.438;16.744;2023-06-22T00:01:24;24.70;;;19.45;;
76935;SDS011;65881;52.438;16.744;2023-06-22T00:03:52;24.77;;;20.48;;
76935;SDS011;65881;52.438;16.744;2023-06-22T00:06:17;23.80;;;18.83;;
76935;SDS011;65881;52.438;16.744;2023-06-22T00:08:43;25.15;;;20.77;;
76935;SDS011;65881;52.438;16.744;2023-06-22T00:11:09;26.17;;;20.65;;
76935;SDS011;65881;52.438;16.744;2023-06-22T00:13:34;25.00;;;19.10;;
76935;SDS011;65881;52.438;16.744;2023-06-22T00:16:00;20.90;;;17.30;;
76935;SDS011;65881;52.438;16.744;2023-06-22T00:18:26;23.33;;;18.63;;
76935;SDS011;65881;52.438;16.744;2023-06-22T00:20:54;26.45;;;19.33;;
76935;SDS011;65881;52.438;16.744;2023-06-22T00:23:23;18.70;;;16.65;;
76935;SDS011;65881;52.438;16.744;2023-06-22T00:25:49;23.17;;;17.67;;
76935;SDS011;65881;52.438;16.744;2023-06-22T00:28:15;20.75;;;17.83;;
76935;SDS011;65881;52.438;16.744;2023-06-22T00:30:41;21.83;;;19.00;;
76935;SDS011;65881;52.438;16.744;2023-06-22T00:33:07;22.92;;;18.90;;
76935;SDS011;65881;52.438;16.744;2023-06-22T00:35:32;21.55;;;19.10;;
76935;SDS011;65881;52.438;16.744;2023-06-22T00:37:59;23.17;;;18.40;;
76935;SDS011;65881;52.438;16.744;2023-06-22T00:40:26;24.10;;;18.35;;
76935;SDS011;65881;52.438;16.744;2023-06-22T00:42:53;22.33;;;19.48;;
76935;SDS011;65881;52.438;16.744;2023-06-22T00:45:20;21.70;;;18.83;;
76935;SDS011;65881;52.438;16.744;2023-06-22T00:47:48;21.90;;;18.00;;
76935;SDS011;65881;52.438;16.744;2023-06-22T00:50:24;21.55;;;18.10;;
76935;SDS011;65881;52.438;16.744;2023-06-22T00:52:51;25.80;;;19.70;;
76935;SDS011;65881;52.438;16.744;2023-06-22T00:55:21;21.23;;;17.90;;
76935;SDS011;65881;52.438;16.744;2023-06-22T00:57:48;23.60;;;19.50;;
76935;SDS011;65881;52.438;16.744;2023-06-22T01:00:14;23.80;;;19.02;;
76935;SDS011;65881;52.438;16.744;2023-06-22T01:02:45;23.65;;;19.45;;
76935;SDS011;65881;52.438;16.744;2023-06-22T01:05:14;21.30;;;18.42;;
76935;SDS011;65881;52.438;16.744;2023-06-22T01:07:43;24.30;;;18.70;;
76935;SDS011;65881;52.438;16.744;2023-06-22T01:10:16;20.90;;;18.45;;
76935;SDS011;65881;52.438;16.744;2023-06-22T01:15:36;21.30;;;18.08;;
76935;SDS011;65881;52.438;16.744;2023-06-22T01:18:08;23.33;;;17.15;;
76935;SDS011;65881;52.438;16.744;2023-06-22T01:20:37;21.92;;;18.45;;
76935;SDS011;65881;52.438;16.744;2023-06-22T01:26:12;20.88;;;17.60;;
76935;SDS011;65881;52.438;16.744;2023-06-22T01:28:49;20.73;;;17.77;;
76935;SDS011;65881;52.438;16.744;2023-06-22T01:31:18;21.83;;;17.48;;
76935;SDS011;65881;52.438;16.744;2023-06-22T01:36:21;22.67;;;19.17;;
76935;SDS011;65881;52.438;16.744;2023-06-22T01:38:48;25.15;;;20.77;;
76935;SDS011;65881;52.438;16.744;2023-06-22T01:41:14;23.90;;;20.02;;
76935;SDS011;65881;52.438;16.744;2023-06-22T01:43:42;23.92;;;19.80;;
76935;SDS011;65881;52.438;16.744;2023-06-22T01:46:08;25.88;;;20.02;;
76935;SDS011;65881;52.438;16.744;2023-06-22T01:48:35;26.65;;;20.85;;
76935;SDS011;65881;52.438;16.744;2023-06-22T01:51:01;28.00;;;23.02;;
76935;SDS011;65881;52.438;16.744;2023-06-22T01:53:27;28.70;;;23.55;;
76935;SDS011;65881;52.438;16.744;2023-06-22T01:55:53;29.08;;;21.02;;
76935;SDS011;65881;52.438;16.744;2023-06-22T01:58:20;25.20;;;22.15;;
76935;SDS011;65881;52.438;16.744;2023-06-22T02:00:53;25.35;;;20.42;;
76935;SDS011;65881;52.438;16.744;2023-06-22T02:04:09;24.10;;;19.95;;
76935;SDS011;65881;52.438;16.744;2023-06-22T02:06:39;27.75;;;21.08;;
76935;SDS011;65881;52.438;16.744;2023-06-22T02:09:08;30.52;;;22.35;;
76935;SDS011;65881;52.438;16.744;2023-06-22T02:11:37;25.77;;;23.00;;
76935;SDS011;65881;52.438;16.744;2023-06-22T02:14:06;26.40;;;21.98;;
76935;SDS011;65881;52.438;16.744;2023-06-22T02:16:32;27.25;;;21.05;;
76935;SDS011;65881;52.438;16.744;2023-06-22T02:18:59;25.65;;;19.85;;
76935;SDS011;65881;52.438;16.744;2023-06-22T02:21:28;22.98;;;19.30;;
76935;SDS011;65881;52.438;16.744;2023-06-22T02:23:55;22.80;;;19.33;;
76935;SDS011;65881;52.438;16.744;2023-06-22T02:26:20;21.65;;;17.98;;
76935;SDS011;65881;52.438;16.744;2023-06-22T02:28:46;21.27;;;17.13;;
76935;SDS011;65881;52.438;16.744;2023-06-22T02:31:28;18.33;;;16.30;;
76935;SDS011;65881;52.438;16.744;2023-06-22T02:33:56;22.00;;;17.20;;
76935;SDS011;65881;52.438;16.744;2023-06-22T02:36:23;21.00;;;18.00;;
76935;SDS011;65881;52.438;16.744;2023-06-22T02:38:50;21.30;;;16.67;;
76935;SDS011;65881;52.438;16.744;2023-06-22T02:41:15;22.17;;;18.70;;
76935;SDS011;65881;52.438;16.744;2023-06-22T02:43:45;22.50;;;19.02;;
76935;SDS011;65881;52.438;16.744;2023-06-22T02:46:11;24.30;;;19.88;;
76935;SDS011;65881;52.438;16.744;2023-06-22T02:48:38;26.60;;;20.33;;
76935;SDS011;65881;52.438;16.744;2023-06-22T02:51:06;29.20;;;21.55;;
76935;SDS011;65881;52.438;16.744;2023-06-22T02:53:32;26.58;;;20.92;;
76935;SDS011;65881;52.438;16.744;2023-06-22T02:55:58;25.73;;;20.88;;
76935;SDS011;65881;52.438;16.744;2023-06-22T02:58:29;30.63;;;24.05;;
76935;SDS011;65881;52.438;16.744;2023-06-22T03:00:54;33.38;;;26.40;;
76935;SDS011;65881;52.438;16.744;2023-06-22T03:03:21;30.20;;;23.35;;
76935;SDS011;65881;52.438;16.744;2023-06-22T03:05:47;32.60;;;25.23;;
76935;SDS011;65881;52.438;16.744;2023-06-22T03:08:25;32.03;;;27.73;;
76935;SDS011;65881;52.438;16.744;2023-06-22T03:10:50;34.33;;;26.33;;
76935;SDS011;65881;52.438;16.744;2023-06-22T03:13:17;31.02;;;23.67;;
76935;SDS011;65881;52.438;16.744;2023-06-22T03:15:42;30.92;;;23.77;;
76935;SDS011;65881;52.438;16.744;2023-06-22T03:18:08;31.30;;;25.20;;
76935;SDS011;65881;52.438;16.744;2023-06-22T03:20:35;35.63;;;26.77;;
76935;SDS011;65881;52.438;16.744;2023-06-22T03:23:01;31.48;;;26.75;;
76935;SDS011;65881;52.438;16.744;2023-06-22T03:25:30;29.20;;;25.02;;
76935;SDS011;65881;52.438;16.744;2023-06-22T03:27:55;28.67;;;25.00;;
76935;SDS011;65881;52.438;16.744;2023-06-22T03:30:21;35.60;;;30.08;;
76935;SDS011;65881;52.438;16.744;2023-06-22T03:32:47;34.42;;;28.20;;
76935;SDS011;65881;52.438;16.744;2023-06-22T03:35:12;29.10;;;23.08;;
76935;SDS011;65881;52.438;16.744;2023-06-22T03:37:39;24.98;;;22.25;;
76935;SDS011;65881;52.438;16.744;2023-06-22T03:40:05;27.58;;;22.77;;
76935;SDS011;65881;52.438;16.744;2023-06-22T03:42:33;23.30;;;20.55;;
76935;SDS011;65881;52.438;16.744;2023-06-22T03:45:02;24.45;;;20.35;;
76935;SDS011;65881;52.438;16.744;2023-06-22T03:47:29;29.05;;;22.10;;
76935;SDS011;65881;52.438;16.744;2023-06-22T03:49:54;26.73;;;20.50;;
76935;SDS011;65881;52.438;16.744;2023-06-22T03:52:21;23.25;;;20.70;;
76935;SDS011;65881;52.438;16.744;2023-06-22T03:54:48;24.80;;;20.60;;
76935;SDS011;65881;52.438;16.744;2023-06-22T03:57:17;23.05;;;18.65;;
76935;SDS011;65881;52.438;16.744;2023-06-22T03:59:42;27.00;;;22.08;;
76935;SDS011;65881;52.438;16.744;2023-06-22T04:02:08;25.83;;;20.70;;
76935;SDS011;65881;52.438;16.744;2023-06-22T04:04:34;24.70;;;20.25;;
76935;SDS011;65881;52.438;16.744;2023-06-22T04:07:00;23.65;;;20.73;;
76935;SDS011;65881;52.438;16.744;2023-06-22T04:09:31;25.80;;;21.23;;
76935;SDS011;65881;52.438;16.744;2023-06-22T04:11:57;25.90;;;21.52;;
76935;SDS011;65881;52.438;16.744;2023-06-22T04:14:23;27.27;;;20.42;;
76935;SDS011;65881;52.438;16.744;2023-06-22T04:16:48;24.52;;;21.90;;
76935;SDS011;65881;52.438;16.744;2023-06-22T04:19:14;25.13;;;21.58;;
76935;SDS011;65881;52.438;16.744;2023-06-22T04:21:43;22.25;;;19.63;;
76935;SDS011;65881;52.438;16.744;2023-06-22T04:24:09;26.85;;;21.73;;
76935;SDS011;65881;52.438;16.744;2023-06-22T04:26:39;28.27;;;20.67;;
76935;SDS011;65881;52.438;16.744;2023-06-22T04:29:09;24.98;;;20.40;;
76935;SDS011;65881;52.438;16.744;2023-06-22T04:31:35;26.25;;;20.83;;
76935;SDS011;65881;52.438;16.744;2023-06-22T04:34:01;23.38;;;19.38;;
76935;SDS011;65881;52.438;16.744;2023-06-22T04:36:40;23.40;;;18.88;;
76935;SDS011;65881;52.438;16.744;2023-06-22T04:39:08;24.00;;;19.08;;
76935;SDS011;65881;52.438;16.744;2023-06-22T04:41:40;24.90;;;20.10;;
76935;SDS011;65881;52.438;16.744;2023-06-22T04:44:12;19.85;;;17.80;;
76935;SDS011;65881;52.438;16.744;2023-06-22T04:46:48;21.05;;;16.88;;
76935;SDS011;65881;52.438;16.744;2023-06-22T04:49:19;17.85;;;15.82;;
76935;SDS011;65881;52.438;16.744;2023-06-22T04:51:48;17.88;;;14.63;;
76935;SDS011;65881;52.438;16.744;2023-06-22T04:54:16;20.17;;;14.43;;
76935;SDS011;65881;52.438;16.744;2023-06-22T04:56:42;17.08;;;15.15;;
76935;SDS011;65881;52.438;16.744;2023-06-22T04:59:08;16.13;;;14.40;;
76935;SDS011;65881;52.438;16.744;2023-06-22T05:01:33;14.77;;;13.27;;
76935;SDS011;65881;52.438;16.744;2023-06-22T05:04:00;16.85;;;13.25;;
76935;SDS011;65881;52.438;16.744;2023-06-22T05:06:27;19.40;;;14.23;;
76935;SDS011;65881;52.438;16.744;2023-06-22T05:08:53;19.05;;;13.43;;
76935;SDS011;65881;52.438;16.744;2023-06-22T05:11:26;19.13;;;12.50;;
76935;SDS011;65881;52.438;16.744;2023-06-22T05:13:53;17.25;;;11.43;;
76935;SDS011;65881;52.438;16.744;2023-06-22T05:16:19;13.20;;;11.82;;
76935;SDS011;65881;52.438;16.744;2023-06-22T05:18:52;13.25;;;11.48;;
76935;SDS011;65881;52.438;16.744;2023-06-22T05:21:23;13.88;;;11.82;;
76935;SDS011;65881;52.438;16.744;2023-06-22T05:26:15;15.95;;;10.85;;
76935;SDS011;65881;52.438;16.744;2023-06-22T05:31:32;14.45;;;10.70;;
76935;SDS011;65881;52.438;16.744;2023-06-22T05:33:57;13.32;;;10.90;;
76935;SDS011;65881;52.438;16.744;2023-06-22T05:36:25;9.93;;;8.70;;
76935;SDS011;65881;52.438;16.744;2023-06-22T05:38:51;12.95;;;9.43;;
76935;SDS011;65881;52.438;16.744;2023-06-22T05:41:22;11.65;;;9.90;;
76935;SDS011;65881;52.438;16.744;2023-06-22T05:43:48;11.25;;;9.77;;
76935;SDS011;65881;52.438;16.744;2023-06-22T05:46:14;11.88;;;8.85;;
76935;SDS011;65881;52.438;16.744;2023-06-22T05:48:39;16.83;;;9.68;;
76935;SDS011;65881;52.438;16.744;2023-06-22T05:51:05;11.07;;;8.43;;
76935;SDS011;65881;52.438;16.744;2023-06-22T05:53:31;12.85;;;9.20;;
76935;SDS011;65881;52.438;16.744;2023-06-22T05:55:56;12.43;;;9.05;;
76935;SDS011;65881;52.438;16.744;2023-06-22T05:58:22;9.98;;;7.07;;
76935;SDS011;65881;52.438;16.744;2023-06-22T06:00:48;10.52;;;7.97;;
76935;SDS011;65881;52.438;16.744;2023-06-22T06:03:14;11.20;;;6.60;;
76935;SDS011;65881;52.438;16.744;2023-06-22T06:05:42;10.63;;;6.78;;
76935;SDS011;65881;52.438;16.744;2023-06-22T06:08:09;14.07;;;7.68;;
76935;SDS011;65881;52.438;16.744;2023-06-22T06:10:37;9.05;;;6.50;;
76935;SDS011;65881;52.438;16.744;2023-06-22T06:13:03;6.50;;;5.85;;
76935;SDS011;65881;52.438;16.744;2023-06-22T06:15:29;7.68;;;6.88;;
76935;SDS011;65881;52.438;16.744;2023-06-22T06:17:56;9.48;;;5.63;;
76935;SDS011;65881;52.438;16.744;2023-06-22T06:20:22;8.40;;;6.18;;
76935;SDS011;65881;52.438;16.744;2023-06-22T06:22:49;7.32;;;5.93;;
76935;SDS011;65881;52.438;16.744;2023-06-22T06:25:15;9.68;;;5.32;;
76935;SDS011;65881;52.438;16.744;2023-06-22T06:27:42;7.50;;;5.65;;
76935;SDS011;65881;52.438;16.744;2023-06-22T06:30:09;7.05;;;5.00;;
76935;SDS011;65881;52.438;16.744;2023-06-22T06:32:35;6.05;;;5.35;;
76935;SDS011;65881;52.438;16.744;2023-06-22T06:35:01;9.77;;;5.20;;
76935;SDS011;65881;52.438;16.744;2023-06-22T06:37:27;6.75;;;4.88;;
76935;SDS011;65881;52.438;16.744;2023-06-22T06:39:53;7.68;;;5.07;;
76935;SDS011;65881;52.438;16.744;2023-06-22T06:42:19;7.90;;;5.57;;
76935;SDS011;65881;52.438;16.744;2023-06-22T06:44:44;8.10;;;5.63;;
76935;SDS011;65881;52.438;16.744;2023-06-22T06:47:10;7.22;;;4.40;;
76935;SDS011;65881;52.438;16.744;2023-06-22T06:49:42;5.70;;;4.90;;
76935;SDS011;65881;52.438;16.744;2023-06-22T06:52:08;9.38;;;5.45;;
76935;SDS011;65881;52.438;16.744;2023-06-22T06:54:42;7.50;;;5.72;;
76935;SDS011;65881;52.438;16.744;2023-06-22T06:57:07;6.88;;;5.22;;
76935;SDS011;65881;52.438;16.744;2023-06-22T06:59:39;9.13;;;5.65;;
76935;SDS011;65881;52.438;16.744;2023-06-22T07:02:06;6.10;;;5.13;;
76935;SDS011;65881;52.438;16.744;2023-06-22T07:04:32;6.40;;;4.95;;
76935;SDS011;65881;52.438;16.744;2023-06-22T07:07:01;5.88;;;4.63;;
76935;SDS011;65881;52.438;16.744;2023-06-22T07:09:27;7.60;;;4.80;;
76935;SDS011;65881;52.438;16.744;2023-06-22T07:11:52;6.05;;;4.70;;
76935;SDS011;65881;52.438;16.744;2023-06-22T07:14:18;6.55;;;4.78;;
76935;SDS011;65881;52.438;16.744;2023-06-22T07:16:47;10.80;;;6.20;;
76935;SDS011;65881;52.438;16.744;2023-06-22T07:19:12;9.30;;;6.47;;
76935;SDS011;65881;52.438;16.744;2023-06-22T07:21:41;5.88;;;5.28;;
76935;SDS011;65881;52.438;16.744;2023-06-22T07:24:07;6.45;;;5.40;;
76935;SDS011;65881;52.438;16.744;2023-06-22T07:26:33;5.55;;;4.85;;
76935;SDS011;65881;52.438;16.744;2023-06-22T07:28:59;8.93;;;4.30;;
76935;SDS011;65881;52.438;16.744;2023-06-22T07:31:25;6.43;;;5.13;;
76935;SDS011;65881;52.438;16.744;2023-06-22T07:33:51;6.47;;;5.43;;
76935;SDS011;65881;52.438;16.744;2023-06-22T07:36:17;7.22;;;5.00;;
76935;SDS011;65881;52.438;16.744;2023-06-22T07:38:49;5.55;;;4.45;;
76935;SDS011;65881;52.438;16.744;2023-06-22T07:41:18;5.10;;;4.22;;
76935;SDS011;65881;52.438;16.744;2023-06-22T07:43:44;6.03;;;3.95;;
76935;SDS011;65881;52.438;16.744;2023-06-22T07:46:13;7.93;;;4.22;;
76935;SDS011;65881;52.438;16.744;2023-06-22T07:48:40;9.40;;;4.57;;
76935;SDS011;65881;52.438;16.744;2023-06-22T07:51:07;7.00;;;4.88;;
76935;SDS011;65881;52.438;16.744;2023-06-22T07:53:33;6.68;;;4.63;;
76935;SDS011;65881;52.438;16.744;2023-06-22T07:55:59;6.60;;;4.75;;
76935;SDS011;65881;52.438;16.744;2023-06-22T07:58:24;5.68;;;4.57;;
76935;SDS011;65881;52.438;16.744;2023-06-22T08:00:50;5.30;;;4.78;;
76935;SDS011;65881;52.438;16.744;2023-06-22T08:03:16;4.65;;;3.95;;
76935;SDS011;65881;52.438;16.744;2023-06-22T08:05:54;6.10;;;4.53;;
76935;SDS011;65881;52.438;16.744;2023-06-22T08:08:24;6.68;;;4.28;;
76935;SDS011;65881;52.438;16.744;2023-06-22T08:10:49;6.63;;;4.60;;
76935;SDS011;65881;52.438;16.744;2023-06-22T08:13:15;5.50;;;4.18;;
76935;SDS011;65881;52.438;16.744;2023-06-22T08:15:43;5.25;;;4.28;;
76935;SDS011;65881;52.438;16.744;2023-06-22T08:18:08;5.63;;;4.10;;
76935;SDS011;65881;52.438;16.744;2023-06-22T08:20:34;6.32;;;4.00;;
76935;SDS011;65881;52.438;16.744;2023-06-22T08:23:16;5.60;;;4.47;;
76935;SDS011;65881;52.438;16.744;2023-06-22T08:25:43;7.93;;;5.45;;
76935;SDS011;65881;52.438;16.744;2023-06-22T08:28:11;6.22;;;4.38;;
76935;SDS011;65881;52.438;16.744;2023-06-22T08:30:38;4.95;;;4.25;;
76935;SDS011;65881;52.438;16.744;2023-06-22T08:33:04;5.07;;;4.03;;
76935;SDS011;65881;52.438;16.744;2023-06-22T08:35:29;7.43;;;3.75;;
76935;SDS011;65881;52.438;16.744;2023-06-22T08:37:55;6.45;;;4.18;;
76935;SDS011;65881;52.438;16.744;2023-06-22T08:40:22;6.38;;;4.55;;
76935;SDS011;65881;52.438;16.744;2023-06-22T08:42:48;5.72;;;4.22;;
76935;SDS011;65881;52.438;16.744;2023-06-22T08:45:14;5.88;;;4.35;;
76935;SDS011;65881;52.438;16.744;2023-06-22T08:47:40;6.00;;;4.43;;
76935;SDS011;65881;52.438;16.744;2023-06-22T08:50:09;5.70;;;4.32;;
76935;SDS011;65881;52.438;16.744;2023-06-22T08:52:35;7.93;;;3.90;;
76935;SDS011;65881;52.438;16.744;2023-06-22T08:55:12;5.00;;;3.72;;
76935;SDS011;65881;52.438;16.744;2023-06-22T08:57:37;5.07;;;3.88;;
76935;SDS011;65881;52.438;16.744;2023-06-22T09:00:05;7.68;;;4.03;;
76935;SDS011;65881;52.438;16.744;2023-06-22T09:02:36;6.25;;;4.05;;
76935;SDS011;65881;52.438;16.744;2023-06-22T09:05:03;5.93;;;4.22;;
76935;SDS011;65881;52.438;16.744;2023-06-22T09:07:32;4.65;;;3.90;;
76935;SDS011;65881;52.438;16.744;2023-06-22T09:10:00;4.68;;;4.18;;
76935;SDS011;65881;52.438;16.744;2023-06-22T09:12:29;4.40;;;3.60;;
76935;SDS011;65881;52.438;16.744;2023-06-22T09:14:55;4.22;;;3.58;;
76935;SDS011;65881;52.438;16.744;2023-06-22T09:17:22;5.20;;;3.38;;
76935;SDS011;65881;52.438;16.744;2023-06-22T09:19:48;5.80;;;4.03;;
76935;SDS011;65881;52.438;16.744;2023-06-22T09:22:14;4.68;;;3.95;;
76935;SDS011;65881;52.438;16.744;2023-06-22T09:24:40;5.07;;;4.03;;
76935;SDS011;65881;52.438;16.744;2023-06-22T09:27:05;14.80;;;12.52;;
76935;SDS011;65881;52.438;16.744;2023-06-22T09:29:31;5.18;;;3.85;;
76935;SDS011;65881;52.438;16.744;2023-06-22T09:31:59;3.72;;;3.17;;
76935;SDS011;65881;52.438;16.744;2023-06-22T09:34:25;5.75;;;3.45;;
76935;SDS011;65881;52.438;16.744;2023-06-22T09:36:51;5.80;;;4.05;;
76935;SDS011;65881;52.438;16.744;2023-06-22T09:39:20;6.05;;;4.93;;
76935;SDS011;65881;52.438;16.744;2023-06-22T09:41:45;4.05;;;3.65;;
76935;SDS011;65881;52.438;16.744;2023-06-22T09:44:11;7.18;;;3.80;;
76935;SDS011;65881;52.438;16.744;2023-06-22T09:46:37;5.20;;;3.10;;
76935;SDS011;65881;52.438;16.744;2023-06-22T09:49:02;4.80;;;3.72;;
76935;SDS011;65881;52.438;16.744;2023-06-22T09:51:28;4.15;;;3.20;;
76935;SDS011;65881;52.438;16.744;2023-06-22T09:53:54;5.32;;;3.60;;
76935;SDS011;65881;52.438;16.744;2023-06-22T09:56:20;6.38;;;2.92;;
76935;SDS011;65881;52.438;16.744;2023-06-22T09:58:55;6.68;;;3.30;;
76935;SDS011;65881;52.438;16.744;2023-06-22T10:01:21;5.53;;;3.17;;
76935;SDS011;65881;52.438;16.744;2023-06-22T10:03:47;4.43;;;3.30;;
76935;SDS011;65881;52.438;16.744;2023-06-22T10:06:13;5.32;;;3.08;;
76935;SDS011;65881;52.438;16.744;2023-06-22T10:08:39;5.28;;;2.88;;
76935;SDS011;65881;52.438;16.744;2023-06-22T10:11:07;6.53;;;3.42;;
76935;SDS011;65881;52.438;16.744;2023-06-22T10:13:36;4.07;;;2.97;;
76935;SDS011;65881;52.438;16.744;2023-06-22T10:16:02;4.13;;;3.03;;
76935;SDS011;65881;52.438;16.744;2023-06-22T10:18:34;4.00;;;2.92;;
76935;SDS011;65881;52.438;16.744;2023-06-22T10:21:00;5.10;;;3.00;;
76935;SDS011;65881;52.438;16.744;2023-06-22T10:23:25;4.57;;;3.30;;
76935;SDS011;65881;52.438;16.744;2023-06-22T10:25:51;4.72;;;3.40;;
76935;SDS011;65881;52.438;16.744;2023-06-22T10:28:19;5.20;;;3.88;;
76935;SDS011;65881;52.438;16.744;2023-06-22T10:30:45;7.53;;;6.82;;
76935;SDS011;65881;52.438;16.744;2023-06-22T10:33:11;4.75;;;3.97;;
76935;SDS011;65881;52.438;16.744;2023-06-22T10:35:37;6.72;;;3.22;;
76935;SDS011;65881;52.438;16.744;2023-06-22T10:38:03;5.68;;;3.47;;
76935;SDS011;65881;52.438;16.744;2023-06-22T10:40:29;9.23;;;7.10;;
76935;SDS011;65881;52.438;16.744;2023-06-22T10:42:56;5.57;;;4.22;;
76935;SDS011;65881;52.438;16.744;2023-06-22T10:45:22;5.60;;;4.07;;
76935;SDS011;65881;52.438;16.744;2023-06-22T10:47:47;4.10;;;3.60;;
76935;SDS011;65881;52.438;16.744;2023-06-22T10:50:13;5.05;;;3.33;;
76935;SDS011;65881;52.438;16.744;2023-06-22T10:52:42;4.90;;;3.42;;
76935;SDS011;65881;52.438;16.744;2023-06-22T10:55:11;4.88;;;3.38;;
76935;SDS011;65881;52.438;16.744;2023-06-22T10:57:40;7.05;;;4.55;;
76935;SDS011;65881;52.438;16.744;2023-06-22T11:00:20;4.53;;;3.90;;
76935;SDS011;65881;52.438;16.744;2023-06-22T11:05:46;5.45;;;4.03;;
76935;SDS011;65881;52.438;16.744;2023-06-22T11:08:25;5.70;;;4.20;;
76935;SDS011;65881;52.438;16.744;2023-06-22T11:10:53;5.93;;;4.53;;
76935;SDS011;65881;52.438;16.744;2023-06-22T11:13:22;6.65;;;4.95;;
76935;SDS011;65881;52.438;16.744;2023-06-22T11:18:47;4.32;;;3.33;;
76935;SDS011;65881;52.438;16.744;2023-06-22T11:21:12;6.38;;;5.00;;
76935;SDS011;65881;52.438;16.744;2023-06-22T11:23:54;5.43;;;4.43;;
76935;SDS011;65881;52.438;16.744;2023-06-22T11:26:23;5.82;;;4.22;;
76935;SDS011;65881;52.438;16.744;2023-06-22T11:28:50;4.60;;;4.03;;
76935;SDS011;65881;52.438;16.744;2023-06-22T11:31:19;4.00;;;3.60;;
76935;SDS011;65881;52.438;16.744;2023-06-22T11:34:07;5.05;;;4.07;;
76935;SDS011;65881;52.438;16.744;2023-06-22T11:36:33;5.63;;;4.03;;
76935;SDS011;65881;52.438;16.744;2023-06-22T11:39:00;9.25;;;5.07;;
76935;SDS011;65881;52.438;16.744;2023-06-22T11:41:26;6.15;;;4.75;;
76935;SDS011;65881;52.438;16.744;2023-06-22T11:44:10;6.43;;;4.10;;
76935;SDS011;65881;52.438;16.744;2023-06-22T11:46:36;5.03;;;4.45;;
76935;SDS011;65881;52.438;16.744;2023-06-22T11:49:05;6.10;;;4.55;;
76935;SDS011;65881;52.438;16.744;2023-06-22T11:51:35;4.57;;;3.72;;
76935;SDS011;65881;52.438;16.744;2023-06-22T11:54:05;5.18;;;4.68;;
76935;SDS011;65881;52.438;16.744;2023-06-22T11:56:46;5.38;;;4.60;;
76935;SDS011;65881;52.438;16.744;2023-06-22T11:59:12;4.38;;;3.97;;
76935;SDS011;65881;52.438;16.744;2023-06-22T12:01:38;4.70;;;4.20;;
76935;SDS011;65881;52.438;16.744;2023-06-22T12:04:04;5.82;;;4.15;;
76935;SDS011;65881;52.438;16.744;2023-06-22T12:06:33;4.82;;;4.32;;
76935;SDS011;65881;52.438;16.744;2023-06-22T12:09:23;5.00;;;4.00;;
76935;SDS011;65881;52.438;16.744;2023-06-22T12:11:49;8.93;;;5.10;;
76935;SDS011;65881;52.438;16.744;2023-06-22T12:14:15;5.35;;;4.85;;
76935;SDS011;65881;52.438;16.744;2023-06-22T12:16:40;6.50;;;4.40;;
76935;SDS011;65881;52.438;16.744;2023-06-22T12:19:07;7.40;;;4.97;;
76935;SDS011;65881;52.438;16.744;2023-06-22T12:21:33;6.18;;;4.68;;
76935;SDS011;65881;52.438;16.744;2023-06-22T12:24:02;5.00;;;4.50;;
76935;SDS011;65881;52.438;16.744;2023-06-22T12:26:28;5.93;;;5.10;;
76935;SDS011;65881;52.438;16.744;2023-06-22T12:28:53;5.70;;;4.88;;
76935;SDS011;65881;52.438;16.744;2023-06-22T12:31:21;5.43;;;4.45;;
76935;SDS011;65881;52.438;16.744;2023-06-22T12:33:46;4.88;;;4.10;;
76935;SDS011;65881;52.438;16.744;2023-06-22T12:36:15;6.32;;;5.22;;
76935;SDS011;65881;52.438;16.744;2023-06-22T12:38:44;10.20;;;5.20;;
76935;SDS011;65881;52.438;16.744;2023-06-22T12:41:12;4.90;;;4.28;;
76935;SDS011;65881;52.438;16.744;2023-06-22T12:43:41;6.88;;;4.43;;
76935;SDS011;65881;52.438;16.744;2023-06-22T12:46:11;10.15;;;5.05;;
76935;SDS011;65881;52.438;16.744;2023-06-22T12:48:37;7.05;;;5.28;;
76935;SDS011;65881;52.438;16.744;2023-06-22T12:53:33;5.00;;;4.50;;
76935;SDS011;65881;52.438;16.744;2023-06-22T12:55:58;5.35;;;4.32;;
76935;SDS011;65881;52.438;16.744;2023-06-22T12:58:24;5.13;;;3.92;;
76935;SDS011;65881;52.438;16.744;2023-06-22T13:00:50;5.28;;;4.47;;
76935;SDS011;65881;52.438;16.744;2023-06-22T13:03:15;6.60;;;4.43;;
76935;SDS011;65881;52.438;16.744;2023-06-22T13:05:41;6.22;;;4.65;;
76935;SDS011;65881;52.438;16.744;2023-06-22T13:08:16;6.03;;;4.30;;
76935;SDS011;65881;52.438;16.744;2023-06-22T13:10:44;5.68;;;5.07;;
76935;SDS011;65881;52.438;16.744;2023-06-22T13:13:10;4.95;;;4.45;;
76935;SDS011;65881;52.438;16.744;2023-06-22T13:15:42;5.32;;;4.82;;
76935;SDS011;65881;52.438;16.744;2023-06-22T13:18:20;6.15;;;4.05;;
76935;SDS011;65881;52.438;16.744;2023-06-22T13:20:46;5.88;;;5.28;;
76935;SDS011;65881;52.438;16.744;2023-06-22T13:23:12;7.38;;;6.43;;
76935;SDS011;65881;52.438;16.744;2023-06-22T13:25:37;6.43;;;5.80;;
76935;SDS011;65881;52.438;16.744;2023-06-22T13:28:04;13.00;;;11.57;;
76935;SDS011;65881;52.438;16.744;2023-06-22T13:30:29;5.72;;;5.15;;
76935;SDS011;65881;52.438;16.744;2023-06-22T13:32:56;5.40;;;4.90;;
76935;SDS011;65881;52.438;16.744;2023-06-22T13:35:25;5.97;;;4.47;;
76935;SDS011;65881;52.438;16.744;2023-06-22T13:37:51;5.38;;;4.25;;
76935;SDS011;65881;52.438;16.744;2023-06-22T13:40:19;5.45;;;4.35;;
76935;SDS011;65881;52.438;16.744;2023-06-22T13:42:45;4.85;;;4.35;;
76935;SDS011;65881;52.438;16.744;2023-06-22T13:45:10;5.47;;;4.97;;
76935;SDS011;65881;52.438;16.744;2023-06-22T13:47:36;7.00;;;4.13;;
76935;SDS011;65881;52.438;16.744;2023-06-22T13:50:02;6.38;;;4.22;;
76935;SDS011;65881;52.438;16.744;2023-06-22T13:52:28;5.25;;;4.70;;
76935;SDS011;65881;52.438;16.744;2023-06-22T13:54:54;6.28;;;4.70;;
76935;SDS011;65881;52.438;16.744;2023-06-22T13:57:22;5.97;;;4.90;;
76935;SDS011;65881;52.438;16.744;2023-06-22T13:59:50;6.95;;;4.25;;
76935;SDS011;65881;52.438;16.744;2023-06-22T14:02:15;5.43;;;4.65;;
76935;SDS011;65881;52.438;16.744;2023-06-22T14:04:41;5.47;;;4.68;;
76935;SDS011;65881;52.438;16.744;2023-06-22T14:07:07;5.07;;;4.57;;
76935;SDS011;65881;52.438;16.744;2023-06-22T14:09:33;4.43;;;4.03;;
76935;SDS011;65881;52.438;16.744;2023-06-22T14:12:02;5.55;;;4.55;;
76935;SDS011;65881;52.438;16.744;2023-06-22T14:14:32;4.95;;;4.13;;
76935;SDS011;65881;52.438;16.744;2023-06-22T14:17:00;5.45;;;4.15;;
76935;SDS011;65881;52.438;16.744;2023-06-22T14:19:26;5.70;;;4.18;;
76935;SDS011;65881;52.438;16.744;2023-06-22T14:21:52;5.13;;;4.38;;
76935;SDS011;65881;52.438;16.744;2023-06-22T14:26:48;5.57;;;4.47;;
76935;SDS011;65881;52.438;16.744;2023-06-22T14:29:14;4.72;;;4.20;;
76935;SDS011;65881;52.438;16.744;2023-06-22T14:34:19;5.10;;;4.43;;
76935;SDS011;65881;52.438;16.744;2023-06-22T14:36:44;5.72;;;5.15;;
76935;SDS011;65881;52.438;16.744;2023-06-22T14:39:13;5.30;;;4.80;;
76935;SDS011;65881;52.438;16.744;2023-06-22T14:41:39;5.18;;;4.65;;
76935;SDS011;65881;52.438;16.744;2023-06-22T14:44:04;5.22;;;4.72;;
76935;SDS011;65881;52.438;16.744;2023-06-22T14:46:30;5.07;;;3.97;;
76935;SDS011;65881;52.438;16.744;2023-06-22T14:48:56;5.40;;;4.88;;
76935;SDS011;65881;52.438;16.744;2023-06-22T14:51:22;6.18;;;4.78;;
76935;SDS011;65881;52.438;16.744;2023-06-22T14:53:50;5.20;;;4.50;;